PWSweather.com
Personal Weather Stations
Station Observations
KTXDECATUR
Wildwood, Decatur, TX 76234

WildwoodDecatur, TX 76234

Lat: 33.2634, Lon: -97.6651

Elevation: 800

Station Type: Davis Vantage Pro 2

http://weather.wildwoodnaturist.com

Latest ConditionsUpdated 10:40:00 PM CDT Sunday, Aug 28, 2016
Currently Today's Max Today's Min Today's Average
Temperature 75.8°F24.3°C 89.1°F31.7°C 72.0°F22.2°C 80.4°F26.9°C
Dew Point 70.3°F21.3°C 75.6°F24.2°C 69.4°F20.8°C 72.2°F22.3°C
Winds Calm Calm 8.1 mph ENE13.0 kmh ENE - 2.2 mph 3.5 kmh
Wind Gusts -- 13.8 mph22.2 kmh - -
Humidity 83% 95% 59% 77%
Pressure 29.98 in1015.2 mb 30.02 in1016.6 mb 29.89 in1012.2 mb -
Hour Temp Dew Point Humidity Winds Wind Gusts Pressure Precip Precip Rate Daily Precip Total
10:40 PM 75.8°F24.3°C 70.3°F21.3°C 83% Calm Calm -- 29.98 in1015.2 mb - 0.00 in0.0 mm 0.00 in0.0 mm
10:30 PM 76.0°F24.4°C 70.5°F21.4°C 83% Calm Calm -- 29.98 in1015.2 mb - 0.00 in0.0 mm 0.00 in0.0 mm
10:20 PM 76.3°F24.6°C 70.4°F21.3°C 82% Calm Calm -- 29.98 in1015.2 mb - 0.00 in0.0 mm 0.00 in0.0 mm
10:15 PM 76.5°F24.7°C 70.6°F21.4°C 82% Calm Calm -- 29.98 in1015.2 mb - 0.00 in0.0 mm 0.00 in0.0 mm
10:10 PM 76.5°F24.7°C 70.6°F21.4°C 82% Calm Calm -- 29.98 in1015.2 mb - 0.00 in0.0 mm 0.00 in0.0 mm
10:00 PM 76.7°F24.8°C 70.4°F21.3°C 81% Calm Calm -- 29.98 in1015.2 mb - 0.00 in0.0 mm 0.00 in0.0 mm
09:50 PM 76.9°F24.9°C 70.6°F21.4°C 81% Calm Calm -- 29.97 in1014.9 mb - 0.00 in0.0 mm 0.00 in0.0 mm
09:45 PM 77.1°F25.1°C 70.5°F21.4°C 80% Calm Calm -- 29.97 in1014.9 mb - 0.00 in0.0 mm 0.00 in0.0 mm
09:40 PM 77.3°F25.2°C 70.3°F21.3°C 79% Calm Calm -- 29.97 in1014.9 mb - 0.00 in0.0 mm 0.00 in0.0 mm
09:30 PM 77.6°F25.3°C 70.2°F21.2°C 78% Calm Calm -- 29.97 in1014.9 mb - 0.00 in0.0 mm 0.00 in0.0 mm
09:20 PM 78.1°F25.6°C 70.3°F21.3°C 77% Calm Calm -- 29.96 in1014.6 mb - 0.00 in0.0 mm 0.00 in0.0 mm
09:15 PM 78.4°F25.8°C 70.6°F21.4°C 77% Calm Calm -- 29.96 in1014.6 mb - 0.00 in0.0 mm 0.00 in0.0 mm
09:10 PM 78.7°F25.9°C 70.1°F21.2°C 75% Calm Calm -- 29.96 in1014.6 mb - 0.00 in0.0 mm 0.00 in0.0 mm
09:00 PM 79.2°F26.2°C 70.2°F21.2°C 74% Calm Calm -- 29.95 in1014.2 mb - 0.00 in0.0 mm 0.00 in0.0 mm
08:50 PM 79.5°F26.4°C 70.1°F21.2°C 73% Calm Calm -- 29.95 in1014.2 mb - 0.00 in0.0 mm 0.00 in0.0 mm
08:45 PM 79.6°F26.4°C 69.8°F21.0°C 72% Calm Calm -- 29.95 in1014.2 mb - 0.00 in0.0 mm 0.00 in0.0 mm
08:40 PM 79.9°F26.6°C 70.1°F21.2°C 72% Calm Calm 2.3 mph3.7 kmh 29.95 in1014.2 mb - 0.00 in0.0 mm 0.00 in0.0 mm
08:30 PM 80.4°F26.9°C 69.7°F20.9°C 70% Calm Calm -- 29.94 in1013.9 mb - 0.00 in0.0 mm 0.00 in0.0 mm
08:20 PM 80.7°F27.1°C 69.6°F20.9°C 69% Calm Calm 1.2 mph1.9 kmh 29.94 in1013.9 mb - 0.00 in0.0 mm 0.00 in0.0 mm
08:15 PM 80.9°F27.2°C 69.4°F20.8°C 68% Calm Calm 2.3 mph3.7 kmh 29.93 in1013.5 mb - 0.00 in0.0 mm 0.00 in0.0 mm
08:10 PM 81.2°F27.3°C 69.6°F20.9°C 68% 2.3 mph ESE3.7 kmh ESE 3.5 mph5.6 kmh 29.93 in1013.5 mb - 0.00 in0.0 mm 0.00 in0.0 mm
08:00 PM 81.8°F27.7°C 69.8°F21.0°C 67% 1.2 mph ESE1.9 kmh ESE 2.3 mph3.7 kmh 29.93 in1013.5 mb - 0.00 in0.0 mm 0.00 in0.0 mm
07:50 PM 82.4°F28.0°C 69.9°F21.1°C 66% 1.2 mph ESE1.9 kmh ESE 4.6 mph7.4 kmh 29.92 in1013.2 mb - 0.00 in0.0 mm 0.00 in0.0 mm
07:45 PM 82.7°F28.2°C 70.2°F21.2°C 66% 2.3 mph ESE3.7 kmh ESE 2.3 mph3.7 kmh 29.92 in1013.2 mb - 0.00 in0.0 mm 0.00 in0.0 mm
07:40 PM 83.1°F28.4°C 70.6°F21.4°C 66% 2.3 mph ESE3.7 kmh ESE 4.6 mph7.4 kmh 29.92 in1013.2 mb - 0.00 in0.0 mm 0.00 in0.0 mm
07:30 PM 84.0°F28.9°C 71.0°F21.7°C 65% 2.3 mph SE3.7 kmh SE 4.6 mph7.4 kmh 29.91 in1012.9 mb - 0.00 in0.0 mm 0.00 in0.0 mm
07:20 PM 85.0°F29.4°C 71.0°F21.7°C 63% 4.6 mph ESE7.4 kmh ESE 5.8 mph9.3 kmh 29.91 in1012.9 mb - 0.00 in0.0 mm 0.00 in0.0 mm
07:15 PM 85.4°F29.7°C 70.9°F21.6°C 62% 3.5 mph ESE5.6 kmh ESE 5.8 mph9.3 kmh 29.91 in1012.9 mb - 0.00 in0.0 mm 0.00 in0.0 mm
07:10 PM 85.7°F29.8°C 71.2°F21.8°C 62% 4.6 mph ESE7.4 kmh ESE 6.9 mph11.1 kmh 29.91 in1012.9 mb - 0.00 in0.0 mm 0.00 in0.0 mm
07:00 PM 86.2°F30.1°C 71.6°F22.0°C 62% 3.5 mph ESE5.6 kmh ESE 5.8 mph9.3 kmh 29.90 in1012.5 mb - 0.00 in0.0 mm 0.00 in0.0 mm
06:50 PM 86.6°F30.3°C 71.1°F21.7°C 60% 4.6 mph ESE7.4 kmh ESE 8.1 mph13.0 kmh 29.90 in1012.5 mb - 0.00 in0.0 mm 0.00 in0.0 mm
06:45 PM 86.7°F30.4°C 70.7°F21.5°C 59% 4.6 mph SE7.4 kmh SE 8.1 mph13.0 kmh 29.90 in1012.5 mb - 0.00 in0.0 mm 0.00 in0.0 mm
06:40 PM 86.7°F30.4°C 71.2°F21.8°C 60% 5.8 mph ESE9.3 kmh ESE 8.1 mph13.0 kmh 29.90 in1012.5 mb - 0.00 in0.0 mm 0.00 in0.0 mm
06:30 PM 87.1°F30.6°C 72.0°F22.2°C 61% 6.9 mph SE11.1 kmh SE 9.2 mph14.8 kmh 29.89 in1012.2 mb - 0.00 in0.0 mm 0.00 in0.0 mm
06:20 PM 87.4°F30.8°C 71.8°F22.1°C 60% 6.9 mph ESE11.1 kmh ESE 9.2 mph14.8 kmh 29.89 in1012.2 mb - 0.00 in0.0 mm 0.00 in0.0 mm
06:15 PM 87.6°F30.9°C 72.5°F22.5°C 61% 5.8 mph SE9.3 kmh SE 9.2 mph14.8 kmh 29.89 in1012.2 mb - 0.00 in0.0 mm 0.00 in0.0 mm
06:10 PM 87.7°F30.9°C 72.6°F22.6°C 61% 5.8 mph ESE9.3 kmh ESE 6.9 mph11.1 kmh 29.89 in1012.2 mb - 0.00 in0.0 mm 0.00 in0.0 mm
06:00 PM 87.9°F31.1°C 72.8°F22.7°C 61% 5.8 mph E9.3 kmh E 8.1 mph13.0 kmh 29.89 in1012.2 mb - 0.00 in0.0 mm 0.00 in0.0 mm
05:50 PM 88.2°F31.2°C 73.5°F23.1°C 62% 4.6 mph SE7.4 kmh SE 9.2 mph14.8 kmh 29.89 in1012.2 mb - 0.00 in0.0 mm 0.00 in0.0 mm
05:45 PM 88.0°F31.1°C 72.9°F22.7°C 61% 4.6 mph ESE7.4 kmh ESE 9.2 mph14.8 kmh 29.89 in1012.2 mb - 0.00 in0.0 mm 0.00 in0.0 mm
05:40 PM 88.1°F31.2°C 72.4°F22.4°C 60% 4.6 mph ESE7.4 kmh ESE 6.9 mph11.1 kmh 29.89 in1012.2 mb - 0.00 in0.0 mm 0.00 in0.0 mm
05:30 PM 88.7°F31.5°C 72.5°F22.5°C 59% 6.9 mph E11.1 kmh E 8.1 mph13.0 kmh 29.89 in1012.2 mb - 0.00 in0.0 mm 0.00 in0.0 mm
05:20 PM 88.3°F31.3°C 72.2°F22.3°C 59% 4.6 mph E7.4 kmh E 5.8 mph9.3 kmh 29.90 in1012.5 mb - 0.00 in0.0 mm 0.00 in0.0 mm
05:15 PM 88.5°F31.4°C 72.9°F22.7°C 60% 5.8 mph ESE9.3 kmh ESE 10.4 mph16.7 kmh 29.89 in1012.2 mb - 0.00 in0.0 mm 0.00 in0.0 mm
05:10 PM 88.7°F31.5°C 73.0°F22.8°C 60% 5.8 mph E9.3 kmh E 8.1 mph13.0 kmh 29.89 in1012.2 mb - 0.00 in0.0 mm 0.00 in0.0 mm
05:00 PM 88.6°F31.4°C 74.0°F23.3°C 62% 6.9 mph ENE11.1 kmh ENE 8.1 mph13.0 kmh 29.90 in1012.5 mb - 0.00 in0.0 mm 0.00 in0.0 mm
04:50 PM 88.7°F31.5°C 73.1°F22.8°C 60% 5.8 mph E9.3 kmh E 10.4 mph16.7 kmh 29.90 in1012.5 mb - 0.00 in0.0 mm 0.00 in0.0 mm
04:45 PM 88.5°F31.4°C 73.8°F23.2°C 62% 4.6 mph ESE7.4 kmh ESE 6.9 mph11.1 kmh 29.90 in1012.5 mb - 0.00 in0.0 mm 0.00 in0.0 mm
04:40 PM 88.4°F31.3°C 72.7°F22.6°C 60% 6.9 mph ESE11.1 kmh ESE 10.4 mph16.7 kmh 29.90 in1012.5 mb - 0.00 in0.0 mm 0.00 in0.0 mm
04:30 PM 88.1°F31.2°C 73.4°F23.0°C 62% 5.8 mph SE9.3 kmh SE 9.2 mph14.8 kmh 29.90 in1012.5 mb - 0.00 in0.0 mm 0.00 in0.0 mm
04:20 PM 89.0°F31.7°C 72.8°F22.7°C 59% 5.8 mph E9.3 kmh E 10.4 mph16.7 kmh 29.91 in1012.9 mb - 0.00 in0.0 mm 0.00 in0.0 mm
04:15 PM 88.8°F31.6°C 73.6°F23.1°C 61% 4.6 mph E7.4 kmh E 5.8 mph9.3 kmh 29.91 in1012.9 mb - 0.00 in0.0 mm 0.00 in0.0 mm
04:10 PM 88.9°F31.6°C 74.7°F23.7°C 63% 6.9 mph ESE11.1 kmh ESE 11.5 mph18.5 kmh 29.91 in1012.9 mb - 0.00 in0.0 mm 0.00 in0.0 mm
04:00 PM 89.1°F31.7°C 73.4°F23.0°C 60% 6.9 mph E11.1 kmh E 9.2 mph14.8 kmh 29.91 in1012.9 mb - 0.00 in0.0 mm 0.00 in0.0 mm
03:50 PM 88.7°F31.5°C 73.5°F23.1°C 61% 2.3 mph SE3.7 kmh SE 3.5 mph5.6 kmh 29.92 in1013.2 mb - 0.00 in0.0 mm 0.00 in0.0 mm
03:45 PM 88.7°F31.5°C 73.6°F23.1°C 61% 5.8 mph SE9.3 kmh SE 9.2 mph14.8 kmh 29.92 in1013.2 mb - 0.00 in0.0 mm 0.00 in0.0 mm
03:40 PM 88.6°F31.4°C 73.4°F23.0°C 61% 4.6 mph ESE7.4 kmh ESE 9.2 mph14.8 kmh 29.92 in1013.2 mb - 0.00 in0.0 mm 0.00 in0.0 mm
03:30 PM 88.5°F31.4°C 73.4°F23.0°C 61% 3.5 mph ESE5.6 kmh ESE 4.6 mph7.4 kmh 29.93 in1013.5 mb - 0.00 in0.0 mm 0.00 in0.0 mm
03:20 PM 87.7°F30.9°C 73.1°F22.8°C 62% 5.8 mph E9.3 kmh E 10.4 mph16.7 kmh 29.93 in1013.5 mb - 0.00 in0.0 mm 0.00 in0.0 mm
03:15 PM 88.6°F31.4°C 72.9°F22.7°C 60% 4.6 mph ESE7.4 kmh ESE 5.8 mph9.3 kmh 29.93 in1013.5 mb - 0.00 in0.0 mm 0.00 in0.0 mm
03:10 PM 88.4°F31.3°C 74.6°F23.7°C 64% 8.1 mph E13.0 kmh E 9.2 mph14.8 kmh 29.94 in1013.9 mb - 0.00 in0.0 mm 0.00 in0.0 mm
03:00 PM 88.1°F31.2°C 72.5°F22.5°C 60% 1.2 mph E1.9 kmh E 3.5 mph5.6 kmh 29.94 in1013.9 mb - 0.00 in0.0 mm 0.00 in0.0 mm
02:50 PM 87.4°F30.8°C 73.3°F22.9°C 63% 4.6 mph E7.4 kmh E 6.9 mph11.1 kmh 29.95 in1014.2 mb - 0.00 in0.0 mm 0.00 in0.0 mm
02:45 PM 87.2°F30.7°C 74.0°F23.3°C 65% 5.8 mph E9.3 kmh E 8.1 mph13.0 kmh 29.95 in1014.2 mb - 0.00 in0.0 mm 0.00 in0.0 mm
02:40 PM 87.4°F30.8°C 73.2°F22.9°C 63% 4.6 mph SE7.4 kmh SE 6.9 mph11.1 kmh 29.96 in1014.6 mb - 0.00 in0.0 mm 0.00 in0.0 mm
02:30 PM 87.1°F30.6°C 74.3°F23.5°C 66% 5.8 mph E9.3 kmh E 8.1 mph13.0 kmh 29.97 in1014.9 mb - 0.00 in0.0 mm 0.00 in0.0 mm
02:20 PM 87.8°F31.0°C 73.6°F23.1°C 63% 4.6 mph ESE7.4 kmh ESE 8.1 mph13.0 kmh 29.97 in1014.9 mb - 0.00 in0.0 mm 0.00 in0.0 mm
02:15 PM 87.9°F31.1°C 74.7°F23.7°C 65% 4.6 mph ESE7.4 kmh ESE 4.6 mph7.4 kmh 29.97 in1014.9 mb - 0.00 in0.0 mm 0.00 in0.0 mm
02:10 PM 87.4°F30.8°C 74.6°F23.7°C 66% 5.8 mph E9.3 kmh E 9.2 mph14.8 kmh 29.97 in1014.9 mb - 0.00 in0.0 mm 0.00 in0.0 mm
02:00 PM 87.7°F30.9°C 74.5°F23.6°C 65% 6.9 mph ESE11.1 kmh ESE 9.2 mph14.8 kmh 29.98 in1015.2 mb - 0.00 in0.0 mm 0.00 in0.0 mm
01:50 PM 87.1°F30.6°C 74.8°F23.8°C 67% 3.5 mph SE5.6 kmh SE 6.9 mph11.1 kmh 29.98 in1015.2 mb - 0.00 in0.0 mm 0.00 in0.0 mm
01:45 PM 87.1°F30.6°C 73.9°F23.3°C 65% 4.6 mph SE7.4 kmh SE 8.1 mph13.0 kmh 29.98 in1015.2 mb - 0.00 in0.0 mm 0.00 in0.0 mm
01:40 PM 87.1°F30.6°C 74.8°F23.8°C 67% 3.5 mph ESE5.6 kmh ESE 4.6 mph7.4 kmh 29.98 in1015.2 mb - 0.00 in0.0 mm 0.00 in0.0 mm
01:30 PM 85.3°F29.6°C 74.0°F23.3°C 69% 1.2 mph ESE1.9 kmh ESE 5.8 mph9.3 kmh 29.99 in1015.6 mb - 0.00 in0.0 mm 0.00 in0.0 mm
01:20 PM 86.1°F30.1°C 74.7°F23.7°C 69% 5.8 mph E9.3 kmh E 8.1 mph13.0 kmh 29.99 in1015.6 mb - 0.00 in0.0 mm 0.00 in0.0 mm
01:15 PM 85.9°F29.9°C 74.6°F23.7°C 69% 8.1 mph ENE13.0 kmh ENE 10.4 mph16.7 kmh 29.99 in1015.6 mb - 0.00 in0.0 mm 0.00 in0.0 mm
01:10 PM 84.7°F29.3°C 74.7°F23.7°C 72% 5.8 mph E9.3 kmh E 12.7 mph20.4 kmh 29.99 in1015.6 mb - 0.00 in0.0 mm 0.00 in0.0 mm
01:00 PM 84.7°F29.3°C 73.8°F23.2°C 70% 4.6 mph ESE7.4 kmh ESE 6.9 mph11.1 kmh 29.99 in1015.6 mb - 0.00 in0.0 mm 0.00 in0.0 mm
12:50 PM 85.1°F29.5°C 74.2°F23.4°C 70% 3.5 mph ESE5.6 kmh ESE 5.8 mph9.3 kmh 29.99 in1015.6 mb - 0.00 in0.0 mm 0.00 in0.0 mm
12:45 PM 85.5°F29.7°C 74.2°F23.4°C 69% 3.5 mph E5.6 kmh E 6.9 mph11.1 kmh 30.00 in1015.9 mb - 0.00 in0.0 mm 0.00 in0.0 mm
12:40 PM 85.2°F29.6°C 74.7°F23.7°C 71% 6.9 mph SE11.1 kmh SE 13.8 mph22.2 kmh 30.00 in1015.9 mb - 0.00 in0.0 mm 0.00 in0.0 mm
12:30 PM 85.2°F29.6°C 74.3°F23.5°C 70% 3.5 mph ESE5.6 kmh ESE 4.6 mph7.4 kmh 30.00 in1015.9 mb - 0.00 in0.0 mm 0.00 in0.0 mm
12:20 PM 85.2°F29.6°C 73.9°F23.3°C 69% 3.5 mph E5.6 kmh E 5.8 mph9.3 kmh 30.01 in1016.3 mb - 0.00 in0.0 mm 0.00 in0.0 mm
12:15 PM 85.3°F29.6°C 74.8°F23.8°C 71% 5.8 mph ESE9.3 kmh ESE 9.2 mph14.8 kmh 30.01 in1016.3 mb - 0.00 in0.0 mm 0.00 in0.0 mm
12:10 PM 84.9°F29.4°C 74.4°F23.6°C 71% 3.5 mph E5.6 kmh E 4.6 mph7.4 kmh 30.01 in1016.3 mb - 0.00 in0.0 mm 0.00 in0.0 mm
12:00 PM 85.0°F29.4°C 75.3°F24.1°C 73% 4.6 mph E7.4 kmh E 8.1 mph13.0 kmh 30.01 in1016.3 mb - 0.00 in0.0 mm 0.00 in0.0 mm
11:50 AM 85.4°F29.7°C 74.5°F23.6°C 70% 3.5 mph SE5.6 kmh SE 6.9 mph11.1 kmh 30.01 in1016.3 mb - 0.00 in0.0 mm 0.00 in0.0 mm
11:45 AM 85.1°F29.5°C 74.6°F23.7°C 71% 4.6 mph E7.4 kmh E 8.1 mph13.0 kmh 30.01 in1016.3 mb - 0.00 in0.0 mm 0.00 in0.0 mm
11:40 AM 84.9°F29.4°C 74.4°F23.6°C 71% 1.2 mph ESE1.9 kmh ESE 3.5 mph5.6 kmh 30.01 in1016.3 mb - 0.00 in0.0 mm 0.00 in0.0 mm
11:30 AM 84.7°F29.3°C 75.1°F23.9°C 73% 1.2 mph ESE1.9 kmh ESE 4.6 mph7.4 kmh 30.01 in1016.3 mb - 0.00 in0.0 mm 0.00 in0.0 mm
11:20 AM 84.0°F28.9°C 74.4°F23.6°C 73% 1.2 mph E1.9 kmh E 2.3 mph3.7 kmh 30.01 in1016.3 mb - 0.00 in0.0 mm 0.00 in0.0 mm
11:15 AM 84.2°F29.0°C 74.6°F23.7°C 73% 3.5 mph E5.6 kmh E 3.5 mph5.6 kmh 30.01 in1016.3 mb - 0.00 in0.0 mm 0.00 in0.0 mm
11:10 AM 83.8°F28.8°C 74.6°F23.7°C 74% 2.3 mph E3.7 kmh E 5.8 mph9.3 kmh 30.02 in1016.6 mb - 0.00 in0.0 mm 0.00 in0.0 mm
11:00 AM 84.1°F28.9°C 74.1°F23.4°C 72% 2.3 mph ESE3.7 kmh ESE 4.6 mph7.4 kmh 30.01 in1016.3 mb - 0.00 in0.0 mm 0.00 in0.0 mm
10:50 AM 84.5°F29.2°C 75.3°F24.1°C 74% 1.2 mph ENE1.9 kmh ENE 4.6 mph7.4 kmh 30.01 in1016.3 mb - 0.00 in0.0 mm 0.00 in0.0 mm
10:45 AM 84.4°F29.1°C 75.6°F24.2°C 75% Calm Calm 3.5 mph5.6 kmh 30.01 in1016.3 mb - 0.00 in0.0 mm 0.00 in0.0 mm
10:40 AM 83.9°F28.8°C 75.5°F24.2°C 76% 1.2 mph SW1.9 kmh SW 3.5 mph5.6 kmh 30.01 in1016.3 mb - 0.00 in0.0 mm 0.00 in0.0 mm
10:30 AM 83.1°F28.4°C 74.7°F23.7°C 76% 3.5 mph WSW5.6 kmh WSW 5.8 mph9.3 kmh 30.02 in1016.6 mb - 0.00 in0.0 mm 0.00 in0.0 mm
10:20 AM 82.2°F27.9°C 73.9°F23.3°C 76% 3.5 mph S5.6 kmh S 3.5 mph5.6 kmh 30.01 in1016.3 mb - 0.00 in0.0 mm 0.00 in0.0 mm
10:15 AM 82.0°F27.8°C 74.5°F23.6°C 78% 1.2 mph S1.9 kmh S 2.3 mph3.7 kmh 30.01 in1016.3 mb - 0.00 in0.0 mm 0.00 in0.0 mm
10:10 AM 81.8°F27.7°C 74.6°F23.7°C 79% 2.3 mph S3.7 kmh S 3.5 mph5.6 kmh 30.02 in1016.6 mb - 0.00 in0.0 mm 0.00 in0.0 mm
10:00 AM 80.8°F27.1°C 74.4°F23.6°C 81% 1.2 mph SSW1.9 kmh SSW 3.5 mph5.6 kmh 30.02 in1016.6 mb - 0.00 in0.0 mm 0.00 in0.0 mm
09:50 AM 80.4°F26.9°C 74.4°F23.6°C 82% 2.3 mph SW3.7 kmh SW 3.5 mph5.6 kmh 30.02 in1016.6 mb - 0.00 in0.0 mm 0.00 in0.0 mm
09:45 AM 80.3°F26.8°C 75.0°F23.9°C 84% 1.2 mph SW1.9 kmh SW 2.3 mph3.7 kmh 30.02 in1016.6 mb - 0.00 in0.0 mm 0.00 in0.0 mm
09:40 AM 79.9°F26.6°C 74.7°F23.7°C 84% 3.5 mph SW5.6 kmh SW 4.6 mph7.4 kmh 30.02 in1016.6 mb - 0.00 in0.0 mm 0.00 in0.0 mm
09:30 AM 79.3°F26.3°C 74.4°F23.6°C 85% 2.3 mph SW3.7 kmh SW 2.3 mph3.7 kmh 30.02 in1016.6 mb - 0.00 in0.0 mm 0.00 in0.0 mm
09:20 AM 78.7°F25.9°C 74.5°F23.6°C 87% 1.2 mph SSE1.9 kmh SSE 3.5 mph5.6 kmh 30.01 in1016.3 mb - 0.00 in0.0 mm 0.00 in0.0 mm
09:15 AM 78.3°F25.7°C 74.1°F23.4°C 87% 1.2 mph SSE1.9 kmh SSE 1.2 mph1.9 kmh 30.01 in1016.3 mb - 0.00 in0.0 mm 0.00 in0.0 mm
09:10 AM 77.8°F25.4°C 74.0°F23.3°C 88% 1.2 mph SSE1.9 kmh SSE 2.3 mph3.7 kmh 30.01 in1016.3 mb - 0.00 in0.0 mm 0.00 in0.0 mm
09:00 AM 77.3°F25.2°C 73.8°F23.2°C 89% Calm Calm 2.3 mph3.7 kmh 30.01 in1016.3 mb - 0.00 in0.0 mm 0.00 in0.0 mm
08:50 AM 76.9°F24.9°C 73.7°F23.2°C 90% 1.2 mph SE1.9 kmh SE -- 30.01 in1016.3 mb - 0.00 in0.0 mm 0.00 in0.0 mm
08:45 AM 76.7°F24.8°C 73.5°F23.1°C 90% Calm Calm -- 30.01 in1016.3 mb - 0.00 in0.0 mm 0.00 in0.0 mm
08:40 AM 76.5°F24.7°C 73.7°F23.2°C 91% Calm Calm -- 30.01 in1016.3 mb - 0.00 in0.0 mm 0.00 in0.0 mm
08:30 AM 76.2°F24.6°C 73.4°F23.0°C 91% Calm Calm -- 30.01 in1016.3 mb - 0.00 in0.0 mm 0.00 in0.0 mm
08:20 AM 75.5°F24.2°C 73.3°F22.9°C 93% Calm Calm -- 30.01 in1016.3 mb - 0.00 in0.0 mm 0.00 in0.0 mm
08:15 AM 75.0°F23.9°C 72.8°F22.7°C 93% Calm Calm -- 30.01 in1016.3 mb - 0.00 in0.0 mm 0.00 in0.0 mm
08:10 AM 74.6°F23.7°C 72.8°F22.7°C 94% Calm Calm -- 30.01 in1016.3 mb - 0.00 in0.0 mm 0.00 in0.0 mm
08:00 AM 74.1°F23.4°C 72.3°F22.4°C 94% Calm Calm -- 30.01 in1016.3 mb - 0.00 in0.0 mm 0.00 in0.0 mm
07:50 AM 73.4°F23.0°C 71.5°F21.9°C 94% Calm Calm -- 30.01 in1016.3 mb - 0.00 in0.0 mm 0.00 in0.0 mm
07:45 AM 73.0°F22.8°C 71.5°F21.9°C 95% Calm Calm -- 30.01 in1016.3 mb - 0.00 in0.0 mm 0.00 in0.0 mm
07:40 AM 72.8°F22.7°C 70.9°F21.6°C 94% Calm Calm -- 30.01 in1016.3 mb - 0.00 in0.0 mm 0.00 in0.0 mm
07:30 AM 72.4°F22.4°C 70.5°F21.4°C 94% Calm Calm -- 30.01 in1016.3 mb - 0.00 in0.0 mm 0.00 in0.0 mm
07:20 AM 72.1°F22.3°C 70.3°F21.3°C 94% Calm Calm -- 30.00 in1015.9 mb - 0.00 in0.0 mm 0.00 in0.0 mm
07:15 AM 72.1°F22.3°C 70.3°F21.3°C 94% Calm Calm -- 30.00 in1015.9 mb - 0.00 in0.0 mm 0.00 in0.0 mm
07:10 AM 72.1°F22.3°C 70.3°F21.3°C 94% Calm Calm -- 30.00 in1015.9 mb - 0.00 in0.0 mm 0.00 in0.0 mm
07:00 AM 72.2°F22.3°C 70.4°F21.3°C 94% Calm Calm -- 29.99 in1015.6 mb - 0.00 in0.0 mm 0.00 in0.0 mm
06:50 AM 72.1°F22.3°C 70.0°F21.1°C 93% Calm Calm -- 29.99 in1015.6 mb - 0.00 in0.0 mm 0.00 in0.0 mm
06:45 AM 72.0°F22.2°C 69.9°F21.1°C 93% Calm Calm -- 29.99 in1015.6 mb - 0.00 in0.0 mm 0.00 in0.0 mm
06:40 AM 72.1°F22.3°C 70.0°F21.1°C 93% Calm Calm -- 29.99 in1015.6 mb - 0.00 in0.0 mm 0.00 in0.0 mm
06:30 AM 72.5°F22.5°C 70.4°F21.3°C 93% Calm Calm -- 29.98 in1015.2 mb - 0.00 in0.0 mm 0.00 in0.0 mm
06:20 AM 72.7°F22.6°C 70.2°F21.2°C 92% Calm Calm -- 29.98 in1015.2 mb - 0.00 in0.0 mm 0.00 in0.0 mm
06:15 AM 72.8°F22.7°C 70.7°F21.5°C 93% Calm Calm -- 29.98 in1015.2 mb - 0.00 in0.0 mm 0.00 in0.0 mm
06:10 AM 73.0°F22.8°C 70.5°F21.4°C 92% Calm Calm -- 29.98 in1015.2 mb - 0.00 in0.0 mm 0.00 in0.0 mm
06:00 AM 73.1°F22.8°C 70.6°F21.4°C 92% Calm Calm -- 29.97 in1014.9 mb - 0.00 in0.0 mm 0.00 in0.0 mm
05:50 AM 73.2°F22.9°C 70.7°F21.5°C 92% Calm Calm -- 29.97 in1014.9 mb - 0.00 in0.0 mm 0.00 in0.0 mm
05:45 AM 73.2°F22.9°C 70.7°F21.5°C 92% Calm Calm -- 29.96 in1014.6 mb - 0.00 in0.0 mm 0.00 in0.0 mm
05:40 AM 73.3°F22.9°C 70.8°F21.6°C 92% 1.2 mph SE1.9 kmh SE 2.3 mph3.7 kmh 29.96 in1014.6 mb - 0.00 in0.0 mm 0.00 in0.0 mm
05:30 AM 73.4°F23.0°C 70.9°F21.6°C 92% 1.2 mph SE1.9 kmh SE 2.3 mph3.7 kmh 29.96 in1014.6 mb - 0.00 in0.0 mm 0.00 in0.0 mm
05:20 AM 73.5°F23.1°C 71.0°F21.7°C 92% Calm Calm -- 29.96 in1014.6 mb - 0.00 in0.0 mm 0.00 in0.0 mm
05:15 AM 73.5°F23.1°C 70.7°F21.5°C 91% Calm Calm -- 29.96 in1014.6 mb - 0.00 in0.0 mm 0.00 in0.0 mm
05:10 AM 73.6°F23.1°C 70.8°F21.6°C 91% Calm Calm -- 29.96 in1014.6 mb - 0.00 in0.0 mm 0.00 in0.0 mm
05:00 AM 73.9°F23.3°C 71.1°F21.7°C 91% Calm Calm 1.2 mph1.9 kmh 29.96 in1014.6 mb - 0.00 in0.0 mm 0.00 in0.0 mm
04:50 AM 74.0°F23.3°C 71.2°F21.8°C 91% 1.2 mph SE1.9 kmh SE 3.5 mph5.6 kmh 29.95 in1014.2 mb - 0.00 in0.0 mm 0.00 in0.0 mm
04:45 AM 74.0°F23.3°C 70.9°F21.6°C 90% 1.2 mph SE1.9 kmh SE 1.2 mph1.9 kmh 29.95 in1014.2 mb - 0.00 in0.0 mm 0.00 in0.0 mm
04:40 AM 74.1°F23.4°C 71.0°F21.7°C 90% 1.2 mph SE1.9 kmh SE 3.5 mph5.6 kmh 29.95 in1014.2 mb - 0.00 in0.0 mm 0.00 in0.0 mm
04:30 AM 74.3°F23.5°C 71.2°F21.8°C 90% Calm Calm -- 29.95 in1014.2 mb - 0.00 in0.0 mm 0.00 in0.0 mm
04:20 AM 74.5°F23.6°C 71.0°F21.7°C 89% Calm Calm -- 29.95 in1014.2 mb - 0.00 in0.0 mm 0.00 in0.0 mm
04:15 AM 74.6°F23.7°C 71.1°F21.7°C 89% Calm Calm -- 29.95 in1014.2 mb - 0.00 in0.0 mm 0.00 in0.0 mm
04:10 AM 74.6°F23.7°C 71.1°F21.7°C 89% 2.3 mph SE3.7 kmh SE 2.3 mph3.7 kmh 29.95 in1014.2 mb - 0.00 in0.0 mm 0.00 in0.0 mm
04:00 AM 74.8°F23.8°C 71.0°F21.7°C 88% 1.2 mph SE1.9 kmh SE 4.6 mph7.4 kmh 29.95 in1014.2 mb - 0.00 in0.0 mm 0.00 in0.0 mm
03:50 AM 74.9°F23.8°C 71.1°F21.7°C 88% Calm Calm 2.3 mph3.7 kmh 29.95 in1014.2 mb - 0.00 in0.0 mm 0.00 in0.0 mm
03:45 AM 75.0°F23.9°C 71.2°F21.8°C 88% 1.2 mph SE1.9 kmh SE 3.5 mph5.6 kmh 29.95 in1014.2 mb - 0.00 in0.0 mm 0.00 in0.0 mm
03:40 AM 75.1°F23.9°C 71.0°F21.7°C 87% Calm Calm 2.3 mph3.7 kmh 29.95 in1014.2 mb - 0.00 in0.0 mm 0.00 in0.0 mm
03:30 AM 75.2°F24.0°C 71.1°F21.7°C 87% 2.3 mph SE3.7 kmh SE 2.3 mph3.7 kmh 29.95 in1014.2 mb - 0.00 in0.0 mm 0.00 in0.0 mm
03:20 AM 75.4°F24.1°C 71.3°F21.8°C 87% 1.2 mph SE1.9 kmh SE 2.3 mph3.7 kmh 29.95 in1014.2 mb - 0.00 in0.0 mm 0.00 in0.0 mm
03:15 AM 75.5°F24.2°C 71.4°F21.9°C 87% 1.2 mph SE1.9 kmh SE 3.5 mph5.6 kmh 29.95 in1014.2 mb - 0.00 in0.0 mm 0.00 in0.0 mm
03:10 AM 75.5°F24.2°C 71.0°F21.7°C 86% 1.2 mph SE1.9 kmh SE 3.5 mph5.6 kmh 29.94 in1013.9 mb - 0.00 in0.0 mm 0.00 in0.0 mm
03:00 AM 75.6°F24.2°C 71.1°F21.7°C 86% 2.3 mph SE3.7 kmh SE 4.6 mph7.4 kmh 29.95 in1014.2 mb - 0.00 in0.0 mm 0.00 in0.0 mm
02:50 AM 75.6°F24.2°C 71.1°F21.7°C 86% 2.3 mph SE3.7 kmh SE 3.5 mph5.6 kmh 29.94 in1013.9 mb - 0.00 in0.0 mm 0.00 in0.0 mm
02:45 AM 75.6°F24.2°C 71.1°F21.7°C 86% 2.3 mph SE3.7 kmh SE 3.5 mph5.6 kmh 29.94 in1013.9 mb - 0.00 in0.0 mm 0.00 in0.0 mm
02:40 AM 75.6°F24.2°C 71.1°F21.7°C 86% 1.2 mph SE1.9 kmh SE 2.3 mph3.7 kmh 29.94 in1013.9 mb - 0.00 in0.0 mm 0.00 in0.0 mm
02:30 AM 75.5°F24.2°C 71.4°F21.9°C 87% 1.2 mph SE1.9 kmh SE 3.5 mph5.6 kmh 29.95 in1014.2 mb - 0.00 in0.0 mm 0.00 in0.0 mm
02:20 AM 75.3°F24.1°C 71.2°F21.8°C 87% Calm Calm 1.2 mph1.9 kmh 29.95 in1014.2 mb - 0.00 in0.0 mm 0.00 in0.0 mm
02:15 AM 75.2°F24.0°C 71.1°F21.7°C 87% 1.2 mph SE1.9 kmh SE 2.3 mph3.7 kmh 29.95 in1014.2 mb - 0.00 in0.0 mm 0.00 in0.0 mm
02:10 AM 75.0°F23.9°C 71.2°F21.8°C 88% 1.2 mph SE1.9 kmh SE 2.3 mph3.7 kmh 29.95 in1014.2 mb - 0.00 in0.0 mm 0.00 in0.0 mm
02:00 AM 74.5°F23.6°C 71.0°F21.7°C 89% Calm Calm 3.5 mph5.6 kmh 29.96 in1014.6 mb - 0.00 in0.0 mm 0.00 in0.0 mm
01:50 AM 74.1°F23.4°C 71.0°F21.7°C 90% Calm Calm -- 29.96 in1014.6 mb - 0.00 in0.0 mm 0.00 in0.0 mm
01:45 AM 74.0°F23.3°C 70.9°F21.6°C 90% Calm Calm 1.2 mph1.9 kmh 29.96 in1014.6 mb - 0.00 in0.0 mm 0.00 in0.0 mm
01:40 AM 74.1°F23.4°C 71.0°F21.7°C 90% Calm Calm 1.2 mph1.9 kmh 29.96 in1014.6 mb - 0.00 in0.0 mm 0.00 in0.0 mm
01:30 AM 74.4°F23.6°C 70.9°F21.6°C 89% Calm Calm -- 29.96 in1014.6 mb - 0.00 in0.0 mm 0.00 in0.0 mm
01:20 AM 74.6°F23.7°C 71.1°F21.7°C 89% Calm Calm -- 29.96 in1014.6 mb - 0.00 in0.0 mm 0.00 in0.0 mm
01:15 AM 74.6°F23.7°C 70.8°F21.6°C 88% Calm Calm -- 29.96 in1014.6 mb - 0.00 in0.0 mm 0.00 in0.0 mm
01:10 AM 74.8°F23.8°C 70.6°F21.4°C 87% Calm Calm -- 29.96 in1014.6 mb - 0.00 in0.0 mm 0.00 in0.0 mm
01:00 AM 75.4°F24.1°C 70.9°F21.6°C 86% Calm Calm -- 29.96 in1014.6 mb - 0.00 in0.0 mm 0.00 in0.0 mm
12:50 AM 76.0°F24.4°C 71.2°F21.8°C 85% Calm Calm -- 29.96 in1014.6 mb - 0.00 in0.0 mm 0.00 in0.0 mm
12:45 AM 76.3°F24.6°C 71.5°F21.9°C 85% Calm Calm -- 29.96 in1014.6 mb - 0.00 in0.0 mm 0.00 in0.0 mm
12:40 AM 76.5°F24.7°C 71.3°F21.8°C 84% Calm Calm -- 29.96 in1014.6 mb - 0.00 in0.0 mm 0.00 in0.0 mm
12:30 AM 77.1°F25.1°C 71.5°F21.9°C 83% Calm Calm -- 29.96 in1014.6 mb - 0.00 in0.0 mm 0.00 in0.0 mm
12:20 AM 77.7°F25.4°C 71.8°F22.1°C 82% Calm Calm -- 29.96 in1014.6 mb - 0.00 in0.0 mm 0.00 in0.0 mm
12:15 AM 78.0°F25.6°C 71.7°F22.1°C 81% Calm Calm -- 29.95 in1014.2 mb - 0.00 in0.0 mm 0.00 in0.0 mm
12:10 AM 78.1°F25.6°C 71.8°F22.1°C 81% Calm Calm -- 29.95 in1014.2 mb - 0.00 in0.0 mm 0.00 in0.0 mm
12:00 AM 78.4°F25.8°C 71.7°F22.1°C 80% 1.2 mph SE1.9 kmh SE 3.5 mph5.6 kmh 29.95 in1014.2 mb - 0.00 in0.0 mm 0.00 in0.0 mm